createdAt,value
2019-02-16T00:00:43.377Z,95.20
2019-02-16T00:03:09.933Z,95.40
2019-02-16T00:05:36.452Z,95.10
2019-02-16T00:08:03.006Z,94.90
2019-02-16T00:10:29.561Z,95.00
2019-02-16T00:12:56.177Z,95.00
2019-02-16T00:15:22.736Z,94.60
2019-02-16T00:17:49.251Z,93.90
2019-02-16T00:20:15.835Z,94.10
2019-02-16T00:22:42.396Z,94.60
2019-02-16T00:25:08.912Z,94.60
2019-02-16T00:27:36.261Z,95.00
2019-02-16T00:30:03.857Z,94.90
2019-02-16T00:32:30.413Z,95.10
2019-02-16T00:34:56.982Z,95.30
2019-02-16T00:37:23.492Z,95.20
2019-02-16T00:39:50.052Z,95.10
2019-02-16T00:42:16.581Z,95.10
2019-02-16T00:44:43.135Z,95.50
2019-02-16T00:47:09.691Z,95.60
2019-02-16T00:49:36.205Z,95.50
2019-02-16T00:52:02.791Z,95.20
2019-02-16T00:54:29.300Z,94.90
2019-02-16T00:56:55.861Z,95.10
2019-02-16T00:59:22.422Z,95.60
2019-02-16T01:01:48.940Z,95.90
2019-02-16T01:04:15.500Z,96.10
2019-02-16T01:06:42.116Z,96.10
2019-02-16T01:09:08.668Z,95.90
2019-02-16T01:11:35.236Z,95.90
2019-02-16T01:14:01.748Z,95.70
2019-02-16T01:16:28.301Z,96.20
2019-02-16T01:18:54.855Z,95.90
2019-02-16T01:21:23.032Z,95.50
2019-02-16T01:23:49.772Z,95.70
2019-02-16T01:26:16.292Z,95.70
2019-02-16T01:28:42.848Z,95.70
2019-02-16T01:31:09.408Z,96.10
2019-02-16T01:33:35.969Z,96.20
2019-02-16T01:36:02.494Z,96.00
2019-02-16T01:38:29.048Z,96.20
2019-02-16T01:40:55.564Z,96.60
2019-02-16T01:43:22.124Z,96.70
2019-02-16T01:45:48.680Z,96.50
2019-02-16T01:48:15.196Z,96.50
2019-02-16T01:50:41.762Z,96.40
2019-02-16T01:53:09.420Z,96.70
2019-02-16T01:55:35.940Z,97.00
2019-02-16T01:58:02.496Z,96.70
2019-02-16T02:00:29.061Z,96.70
2019-02-16T02:02:55.568Z,96.70
2019-02-16T02:05:22.119Z,96.90
2019-02-16T02:07:48.680Z,97.00
2019-02-16T02:10:15.296Z,97.00
2019-02-16T02:12:41.852Z,96.90
2019-02-16T02:15:08.821Z,96.90
2019-02-16T02:17:35.336Z,96.80
2019-02-16T02:20:01.957Z,96.20
2019-02-16T02:22:28.509Z,96.00
2019-02-16T02:24:55.072Z,95.70
2019-02-16T02:27:21.589Z,95.50
2019-02-16T02:29:48.141Z,95.70
2019-02-16T02:32:14.665Z,95.50
2019-02-16T02:34:41.226Z,95.10
2019-02-16T02:37:07.782Z,95.20
2019-02-16T02:39:34.304Z,95.20
2019-02-16T02:42:00.857Z,95.20
2019-02-16T02:44:27.418Z,96.10
2019-02-16T02:46:54.034Z,96.20
2019-02-16T02:49:20.588Z,97.00
2019-02-16T02:51:52.226Z,97.10
2019-02-16T02:54:15.453Z,97.60
2019-02-16T02:56:42.022Z,97.20
2019-02-16T02:59:08.580Z,96.90
2019-02-16T03:01:35.095Z,96.30
2019-02-16T03:04:01.650Z,96.50
2019-02-16T03:06:28.163Z,96.10
2019-02-16T03:08:54.725Z,96.20
2019-02-16T03:11:21.289Z,96.40
2019-02-16T03:13:48.745Z,96.40
2019-02-16T03:16:15.369Z,96.10
2019-02-16T03:18:41.884Z,96.20
2019-02-16T03:21:08.450Z,95.60
2019-02-16T03:23:34.998Z,96.10
2019-02-16T03:26:09.221Z,96.60
2019-02-16T03:28:37.594Z,97.90
2019-02-16T03:31:08.789Z,97.60
2019-02-16T03:33:46.295Z,98.10
2019-02-16T03:36:17.609Z,97.80
2019-02-16T03:38:45.961Z,97.60
2019-02-16T03:41:12.480Z,96.90
2019-02-16T03:43:39.031Z,97.30
2019-02-16T03:46:05.596Z,98.00
2019-02-16T03:48:32.106Z,98.50
2019-02-16T03:50:58.660Z,98.10
2019-02-16T03:53:25.218Z,97.00
2019-02-16T03:55:51.734Z,96.80
2019-02-16T03:58:18.290Z,97.00
2019-02-16T04:00:44.820Z,96.50
2019-02-16T04:03:11.382Z,96.80
2019-02-16T04:05:37.932Z,96.70
2019-02-16T04:08:04.457Z,96.50
2019-02-16T04:10:31.025Z,96.70
2019-02-16T04:12:57.542Z,96.30
2019-02-16T04:15:24.092Z,96.10
2019-02-16T04:17:50.709Z,96.30
2019-02-16T04:20:17.265Z,96.60
2019-02-16T04:22:43.854Z,97.00
2019-02-16T04:25:10.369Z,97.50
2019-02-16T04:27:36.929Z,96.90
2019-02-16T04:30:03.541Z,96.80
2019-02-16T04:32:30.094Z,96.80
2019-02-16T04:34:56.621Z,97.10
2019-02-16T04:37:23.180Z,96.80
2019-02-16T04:39:49.740Z,96.50
2019-02-16T04:42:16.257Z,97.10
2019-02-16T04:44:42.813Z,97.20
2019-02-16T04:47:09.332Z,97.30
2019-02-16T04:49:35.890Z,97.30
2019-02-16T04:52:03.249Z,97.90
2019-02-16T04:54:29.766Z,97.80
2019-02-16T04:56:56.315Z,97.40
2019-02-16T04:59:22.834Z,97.10
2019-02-16T05:01:49.376Z,96.90
2019-02-16T05:04:16.189Z,97.00
2019-02-16T05:06:42.745Z,98.00
2019-02-16T05:09:09.292Z,98.10
2019-02-16T05:11:35.823Z,97.70
2019-02-16T05:14:02.373Z,96.90
2019-02-16T05:16:28.930Z,97.10
2019-02-16T05:18:55.451Z,97.30
2019-02-16T05:21:22.055Z,97.50
2019-02-16T05:23:48.569Z,97.60
2019-02-16T05:26:15.128Z,97.30
2019-02-16T05:28:41.639Z,96.80
2019-02-16T05:31:08.234Z,97.10
2019-02-16T05:33:34.796Z,97.20
2019-02-16T05:36:01.308Z,97.10
2019-02-16T05:38:27.864Z,97.80
2019-02-16T05:40:54.380Z,98.20
2019-02-16T05:43:21.673Z,98.50
2019-02-16T05:45:48.412Z,98.40
2019-02-16T05:48:15.037Z,97.90
2019-02-16T05:50:41.552Z,98.10
2019-02-16T05:53:08.117Z,97.90
2019-02-16T05:55:34.677Z,97.60
2019-02-16T05:58:01.192Z,97.40
2019-02-16T06:00:29.556Z,97.30
2019-02-16T06:02:56.069Z,97.20
2019-02-16T06:05:22.626Z,96.80
2019-02-16T06:07:49.185Z,97.10
2019-02-16T06:10:15.701Z,96.90
2019-02-16T06:12:42.258Z,97.50
2019-02-16T06:15:09.282Z,98.10
2019-02-16T06:17:35.836Z,97.70
2019-02-16T06:20:03.060Z,98.20
2019-02-16T06:22:30.913Z,98.20
2019-02-16T06:24:57.474Z,97.70
2019-02-16T06:27:23.983Z,97.70
2019-02-16T06:29:50.578Z,97.70
2019-02-16T06:32:17.204Z,97.60
2019-02-16T06:34:43.725Z,97.10
2019-02-16T06:37:22.848Z,97.10
2019-02-16T06:39:49.604Z,97.00
2019-02-16T06:42:16.169Z,97.00
2019-02-16T06:44:44.706Z,96.80
2019-02-16T06:47:11.259Z,96.70
2019-02-16T06:49:37.784Z,96.60
2019-02-16T06:52:04.334Z,96.30
2019-02-16T06:54:30.847Z,96.00
2019-02-16T06:57:01.775Z,95.70
2019-02-16T06:59:28.349Z,96.20
2019-02-16T07:01:54.896Z,96.40
2019-02-16T07:04:21.452Z,96.20
2019-02-16T07:06:47.968Z,96.30
2019-02-16T07:09:14.529Z,96.50
2019-02-16T07:11:41.053Z,96.20
2019-02-16T07:14:07.620Z,96.20
2019-02-16T07:16:38.784Z,96.10
2019-02-16T07:19:07.146Z,95.70
2019-02-16T07:21:33.669Z,95.10
2019-02-16T07:24:00.260Z,94.60
2019-02-16T07:26:26.779Z,94.10
2019-02-16T07:28:53.359Z,93.60
2019-02-16T07:31:19.883Z,93.50
2019-02-16T07:33:46.481Z,93.10
2019-02-16T07:36:13.037Z,92.60
2019-02-16T07:38:39.563Z,93.10
2019-02-16T07:41:06.112Z,92.60
2019-02-16T07:43:39.941Z,91.80
2019-02-16T07:46:14.065Z,91.40
2019-02-16T07:49:00.069Z,91.10
2019-02-16T07:51:28.431Z,91.10
2019-02-16T07:54:08.627Z,90.40
2019-02-16T07:56:48.928Z,89.50
2019-02-16T07:59:20.093Z,87.90
2019-02-16T08:01:51.215Z,86.40
2019-02-16T08:04:25.354Z,84.90
2019-02-16T08:07:02.286Z,85.70
2019-02-16T08:09:30.652Z,83.80
2019-02-16T08:11:58.981Z,83.90
2019-02-16T08:14:29.868Z,82.90
2019-02-16T08:17:00.945Z,82.70
2019-02-16T08:19:29.314Z,82.70
2019-02-16T08:21:57.688Z,82.50
2019-02-16T08:24:41.233Z,82.60
2019-02-16T08:27:25.782Z,82.80
2019-02-16T08:29:54.149Z,81.10
2019-02-16T08:32:31.752Z,81.10
2019-02-16T08:35:00.240Z,81.00
2019-02-16T08:37:44.973Z,80.90
2019-02-16T08:40:30.021Z,79.80
2019-02-16T08:43:01.389Z,79.30
2019-02-16T08:45:35.252Z,78.30
2019-02-16T08:48:09.169Z,78.10
2019-02-16T08:50:37.529Z,78.20
2019-02-16T08:53:20.799Z,77.50
2019-02-16T08:55:49.169Z,76.70
2019-02-16T08:58:33.796Z,76.00
2019-02-16T09:01:13.896Z,74.90
2019-02-16T09:03:57.085Z,74.80
2019-02-16T09:06:31.474Z,75.70
2019-02-16T09:09:00.439Z,75.30
2019-02-16T09:11:34.584Z,75.80
2019-02-16T09:14:12.038Z,76.00
2019-02-16T09:16:43.427Z,76.50
2019-02-16T09:19:13.480Z,76.30
2019-02-16T09:21:44.801Z,76.10
2019-02-16T09:24:19.249Z,75.80
2019-02-16T09:27:04.264Z,75.40
2019-02-16T09:29:32.580Z,75.20
2019-02-16T09:32:06.845Z,74.30
2019-02-16T09:34:35.204Z,74.40
2019-02-16T09:37:03.529Z,74.00
2019-02-16T09:39:37.736Z,73.80
2019-02-16T09:42:11.636Z,73.50
2019-02-16T09:44:39.997Z,73.60
2019-02-16T09:47:08.320Z,72.60
2019-02-16T09:49:52.820Z,73.40
2019-02-16T09:52:21.145Z,73.70
2019-02-16T09:54:58.081Z,74.30
2019-02-16T09:57:26.432Z,74.00
2019-02-16T10:00:00.613Z,72.70
2019-02-16T10:02:28.975Z,73.00
2019-02-16T10:04:57.302Z,73.20
2019-02-16T10:07:25.669Z,71.80
2019-02-16T10:09:53.989Z,70.90
2019-02-16T10:12:25.471Z,70.30
2019-02-16T10:14:56.308Z,70.10
2019-02-16T10:17:26.115Z,68.90
2019-02-16T10:20:00.298Z,68.50
2019-02-16T10:22:31.748Z,68.70
2019-02-16T10:25:00.182Z,70.30
2019-02-16T10:27:28.585Z,70.90
2019-02-16T10:30:13.076Z,70.70
2019-02-16T10:32:56.636Z,69.60
2019-02-16T10:35:28.164Z,70.30
2019-02-16T10:38:02.108Z,70.10
2019-02-16T10:40:36.325Z,71.10
2019-02-16T10:43:04.689Z,70.50
2019-02-16T10:45:49.154Z,71.00
2019-02-16T10:48:17.507Z,71.00
2019-02-16T10:50:45.829Z,69.60
2019-02-16T10:53:14.192Z,69.70
2019-02-16T10:55:51.586Z,70.20
2019-02-16T10:58:25.740Z,70.90
2019-02-16T11:00:59.881Z,70.60
2019-02-16T11:03:39.889Z,70.30
2019-02-16T11:06:17.037Z,70.20
2019-02-16T11:08:50.895Z,69.60
2019-02-16T11:11:19.255Z,70.00
2019-02-16T11:13:47.581Z,70.00
2019-02-16T11:16:19.749Z,69.10
2019-02-16T11:18:50.669Z,69.20
2019-02-16T11:21:24.885Z,67.70
2019-02-16T11:23:56.005Z,67.10
2019-02-16T11:26:30.165Z,65.70
2019-02-16T11:29:15.168Z,66.70
2019-02-16T11:31:52.667Z,66.60
2019-02-16T11:34:33.014Z,66.50
2019-02-16T11:37:01.368Z,65.20
2019-02-16T11:39:46.384Z,63.50
2019-02-16T11:42:14.756Z,64.50
2019-02-16T11:44:54.737Z,64.10
2019-02-16T11:47:26.131Z,64.20
2019-02-16T11:49:57.519Z,63.60
2019-02-16T11:52:37.944Z,62.40
2019-02-16T11:55:07.525Z,62.90
2019-02-16T11:57:35.841Z,63.00
2019-02-16T12:00:08.724Z,63.00
2019-02-16T12:02:39.713Z,62.90
2019-02-16T12:05:13.465Z,63.30
2019-02-16T12:07:47.727Z,62.60
2019-02-16T12:10:16.087Z,61.90
2019-02-16T12:12:47.207Z,61.70
2019-02-16T12:15:15.533Z,62.10
2019-02-16T12:17:58.789Z,61.90
2019-02-16T12:20:33.439Z,61.10
2019-02-16T12:23:15.217Z,63.10
2019-02-16T12:25:43.617Z,62.60
2019-02-16T12:28:14.736Z,62.30
2019-02-16T12:30:49.166Z,61.90
2019-02-16T12:33:33.980Z,61.40
2019-02-16T12:36:02.351Z,60.00
2019-02-16T12:38:34.044Z,59.10
2019-02-16T12:41:02.412Z,57.40
2019-02-16T12:43:30.776Z,56.60
2019-02-16T12:46:07.858Z,57.20
2019-02-16T12:48:44.856Z,56.20
2019-02-16T12:51:18.975Z,54.60
2019-02-16T12:54:03.660Z,54.60
2019-02-16T12:56:32.030Z,55.10
2019-02-16T12:59:03.175Z,56.00
2019-02-16T13:01:31.490Z,54.20
2019-02-16T13:04:11.496Z,54.00
2019-02-16T13:06:39.860Z,54.90
2019-02-16T13:09:14.059Z,54.00
2019-02-16T13:11:54.344Z,53.80
2019-02-16T13:14:34.956Z,54.60
2019-02-16T13:17:06.145Z,56.20
2019-02-16T13:19:43.172Z,55.80
2019-02-16T13:22:11.531Z,55.60
2019-02-16T13:24:54.736Z,55.80
2019-02-16T13:27:25.822Z,55.70
2019-02-16T13:29:55.353Z,56.40
2019-02-16T13:32:29.607Z,55.30
2019-02-16T13:34:57.924Z,55.80
2019-02-16T13:37:32.313Z,55.40
2019-02-16T13:40:00.837Z,55.80
2019-02-16T13:42:37.834Z,57.00
2019-02-16T13:45:07.188Z,56.30
2019-02-16T13:47:41.553Z,55.40
2019-02-16T13:50:10.017Z,56.70
2019-02-16T13:52:53.698Z,57.30
2019-02-16T13:55:33.489Z,57.20
2019-02-16T13:58:00.836Z,57.60
2019-02-16T14:00:32.034Z,58.10
2019-02-16T14:03:15.072Z,59.00
2019-02-16T14:05:45.933Z,58.60
2019-02-16T14:08:17.310Z,58.20
2019-02-16T14:10:54.177Z,57.90
2019-02-16T14:13:34.594Z,57.30
2019-02-16T14:16:02.948Z,56.90
2019-02-16T14:18:29.472Z,57.80
2019-02-16T14:20:56.037Z,57.80
2019-02-16T14:23:22.552Z,58.20
2019-02-16T14:25:49.108Z,56.00
2019-02-16T14:28:15.664Z,56.50
2019-02-16T14:30:42.180Z,55.90
2019-02-16T14:33:08.761Z,57.10
2019-02-16T14:35:35.293Z,57.40
2019-02-16T14:38:12.407Z,56.90
2019-02-16T14:40:38.968Z,57.70
2019-02-16T14:43:05.518Z,56.60
2019-02-16T14:45:33.857Z,56.80
2019-02-16T14:48:00.386Z,56.50
2019-02-16T14:50:26.944Z,56.60
2019-02-16T14:52:53.806Z,57.00
2019-02-16T14:55:20.334Z,56.60
2019-02-16T14:57:46.888Z,56.30
2019-02-16T15:00:13.419Z,56.60
2019-02-16T15:02:39.972Z,57.40
2019-02-16T15:05:07.301Z,57.70
2019-02-16T15:07:33.868Z,58.30
2019-02-16T15:10:00.820Z,58.40
2019-02-16T15:12:27.364Z,59.50
2019-02-16T15:14:53.920Z,59.70
2019-02-16T15:17:20.436Z,59.40
2019-02-16T15:19:47.001Z,59.30
2019-02-16T15:22:13.522Z,59.30
2019-02-16T15:24:40.076Z,58.30
2019-02-16T15:27:06.601Z,58.30
2019-02-16T15:29:33.194Z,58.60
2019-02-16T15:31:59.713Z,59.90
2019-02-16T15:34:26.268Z,60.70
2019-02-16T15:36:52.836Z,60.40
2019-02-16T15:39:19.353Z,60.20
2019-02-16T15:41:45.920Z,60.40
2019-02-16T15:44:12.442Z,60.70
2019-02-16T15:46:38.998Z,61.50
2019-02-16T15:49:05.552Z,61.70
2019-02-16T15:51:32.066Z,62.20
2019-02-16T15:53:58.625Z,63.10
2019-02-16T15:56:25.180Z,63.20
2019-02-16T15:58:51.704Z,63.80
2019-02-16T16:01:18.338Z,64.20
2019-02-16T16:03:44.929Z,65.00
2019-02-16T16:06:11.488Z,64.70
2019-02-16T16:08:39.809Z,65.80
2019-02-16T16:11:08.173Z,65.80
2019-02-16T16:13:42.540Z,66.80
2019-02-16T16:16:13.498Z,66.90
2019-02-16T16:18:47.724Z,68.30
2019-02-16T16:21:22.133Z,68.90
2019-02-16T16:23:51.148Z,68.80
2019-02-16T16:26:28.140Z,69.90
2019-02-16T16:29:14.175Z,70.00
2019-02-16T16:31:51.493Z,69.60
2019-02-16T16:34:19.857Z,68.80
2019-02-16T16:37:03.121Z,67.80
2019-02-16T16:39:40.952Z,67.60
2019-02-16T16:42:12.133Z,68.60
2019-02-16T16:44:43.329Z,69.70
2019-02-16T16:47:14.267Z,70.00
2019-02-16T16:49:45.557Z,70.40
2019-02-16T16:52:16.449Z,71.70
2019-02-16T16:54:53.668Z,72.20
2019-02-16T16:57:22.029Z,73.30
2019-02-16T16:59:53.080Z,73.70
2019-02-16T17:02:27.188Z,73.30
2019-02-16T17:05:01.106Z,74.10
2019-02-16T17:07:32.028Z,74.50
2019-02-16T17:10:00.385Z,75.30
2019-02-16T17:12:40.277Z,75.10
2019-02-16T17:15:23.593Z,76.20
2019-02-16T17:18:00.568Z,75.50
2019-02-16T17:20:31.826Z,75.40
2019-02-16T17:23:02.718Z,75.70
2019-02-16T17:25:39.577Z,75.40
2019-02-16T17:28:07.934Z,75.50
2019-02-16T17:30:36.330Z,75.70
2019-02-16T17:33:16.804Z,75.60
2019-02-16T17:35:45.160Z,75.60
2019-02-16T17:38:16.506Z,76.30
2019-02-16T17:40:47.889Z,75.90
2019-02-16T17:43:16.200Z,76.10
2019-02-16T17:46:00.804Z,76.30
2019-02-16T17:48:44.314Z,76.60
2019-02-16T17:51:18.446Z,76.90
2019-02-16T17:54:08.121Z,77.20
2019-02-16T17:56:48.095Z,77.20
2019-02-16T17:59:25.635Z,77.60
2019-02-16T18:01:53.992Z,77.80
2019-02-16T18:04:28.153Z,78.70
2019-02-16T18:07:05.488Z,78.40
2019-02-16T18:09:33.955Z,79.00
2019-02-16T18:12:08.044Z,79.20
2019-02-16T18:14:36.445Z,78.40
2019-02-16T18:17:20.993Z,78.30
2019-02-16T18:19:55.350Z,78.20
2019-02-16T18:22:29.568Z,78.00
2019-02-16T18:25:06.988Z,77.90
2019-02-16T18:27:41.388Z,77.80
2019-02-16T18:30:12.654Z,77.30
2019-02-16T18:32:41.004Z,77.00
2019-02-16T18:35:09.344Z,76.80
2019-02-16T18:37:40.249Z,76.70
2019-02-16T18:40:08.723Z,76.80
2019-02-16T18:42:46.049Z,77.20
2019-02-16T18:45:14.450Z,76.80
2019-02-16T18:47:51.552Z,76.90
2019-02-16T18:50:22.884Z,77.20
2019-02-16T18:52:54.032Z,77.40
2019-02-16T18:55:30.890Z,77.20
2019-02-16T18:57:59.251Z,77.40
2019-02-16T19:00:30.423Z,77.30
2019-02-16T19:03:01.801Z,77.30
2019-02-16T19:05:30.116Z,77.70
2019-02-16T19:08:13.399Z,77.80
2019-02-16T19:10:50.654Z,78.40
2019-02-16T19:13:35.520Z,78.20
2019-02-16T19:16:03.903Z,78.30
2019-02-16T19:18:32.201Z,78.70
2019-02-16T19:21:00.558Z,79.00
2019-02-16T19:23:43.484Z,79.30
2019-02-16T19:26:14.862Z,79.40
2019-02-16T19:28:52.197Z,79.60
2019-02-16T19:31:32.550Z,79.80
2019-02-16T19:34:00.912Z,79.80
2019-02-16T19:36:38.133Z,79.60
2019-02-16T19:39:09.440Z,79.20
2019-02-16T19:41:55.404Z,78.60
2019-02-16T19:44:29.532Z,78.60
2019-02-16T19:47:06.466Z,79.10
2019-02-16T19:49:40.704Z,79.40
2019-02-16T19:52:10.880Z,80.20
2019-02-16T19:54:44.102Z,80.40
2019-02-16T19:57:28.455Z,80.60
2019-02-16T20:00:02.012Z,81.20
2019-02-16T20:02:29.920Z,81.50
2019-02-16T20:05:00.997Z,81.60
2019-02-16T20:07:31.920Z,81.80
2019-02-16T20:10:02.961Z,81.90
2019-02-16T20:12:33.943Z,82.30
2019-02-16T20:15:04.941Z,82.90
2019-02-16T20:17:33.269Z,82.70
2019-02-16T20:20:13.591Z,82.70
2019-02-16T20:22:56.950Z,83.10
2019-02-16T20:25:40.328Z,83.00
2019-02-16T20:28:14.431Z,83.30
2019-02-16T20:30:54.609Z,83.10
2019-02-16T20:33:31.591Z,83.40
2019-02-16T20:36:04.841Z,83.30
2019-02-16T20:38:39.168Z,83.10
2019-02-16T20:41:13.398Z,83.20
2019-02-16T20:43:53.361Z,83.00
2019-02-16T20:46:38.140Z,82.70
2019-02-16T20:49:06.505Z,83.20
2019-02-16T20:51:38.033Z,83.30
2019-02-16T20:54:15.305Z,83.50
2019-02-16T20:56:43.799Z,83.80
2019-02-16T20:59:28.968Z,83.40
2019-02-16T21:02:00.029Z,83.60
2019-02-16T21:04:28.353Z,83.60
2019-02-16T21:07:02.532Z,83.40
2019-02-16T21:09:39.808Z,83.00
2019-02-16T21:12:24.529Z,83.20
2019-02-16T21:14:55.794Z,83.20
2019-02-16T21:17:26.973Z,83.00
2019-02-16T21:20:04.125Z,83.00
2019-02-16T21:22:35.256Z,82.80
2019-02-16T21:25:09.105Z,83.00
2019-02-16T21:27:37.475Z,83.20
2019-02-16T21:30:23.448Z,83.30
2019-02-16T21:33:00.364Z,83.00
2019-02-16T21:35:45.093Z,83.00
2019-02-16T21:38:13.453Z,82.80
2019-02-16T21:40:44.560Z,82.60
2019-02-16T21:43:16.001Z,81.80
2019-02-16T21:45:59.074Z,81.80
2019-02-16T21:48:33.265Z,81.60
2019-02-16T21:51:01.626Z,81.50
2019-02-16T21:53:35.518Z,81.20
2019-02-16T21:56:06.389Z,80.50
2019-02-16T21:58:40.598Z,80.20
2019-02-16T22:01:17.565Z,79.70
2019-02-16T22:03:48.424Z,79.80
2019-02-16T22:06:16.788Z,79.70
2019-02-16T22:08:48.205Z,80.00
2019-02-16T22:11:19.575Z,79.90
2019-02-16T22:13:46.128Z,80.10
2019-02-16T22:16:12.650Z,80.10
2019-02-16T22:18:39.215Z,80.30
2019-02-16T22:21:05.774Z,80.60
2019-02-16T22:23:32.302Z,80.90
2019-02-16T22:25:58.855Z,81.10
2019-02-16T22:28:30.830Z,81.10
2019-02-16T22:30:53.777Z,80.80
2019-02-16T22:33:20.396Z,80.90
2019-02-16T22:35:46.955Z,80.90
2019-02-16T22:38:13.516Z,81.30
2019-02-16T22:40:40.074Z,81.50
2019-02-16T22:43:06.603Z,81.60
2019-02-16T22:45:33.154Z,81.50
2019-02-16T22:47:59.673Z,81.70
2019-02-16T22:50:26.233Z,81.60
2019-02-16T22:52:52.757Z,81.50
2019-02-16T22:55:19.322Z,81.80
2019-02-16T22:57:45.877Z,82.00
2019-02-16T23:00:16.002Z,82.20
2019-02-16T23:02:43.027Z,82.60
2019-02-16T23:05:09.765Z,82.70
2019-02-16T23:07:36.292Z,82.90
2019-02-16T23:10:04.613Z,83.70
2019-02-16T23:12:31.276Z,83.90
2019-02-16T23:14:57.914Z,83.90
2019-02-16T23:17:24.589Z,84.10
2019-02-16T23:19:51.259Z,83.90
2019-02-16T23:22:17.878Z,83.90
2019-02-16T23:24:44.573Z,84.50
2019-02-16T23:27:11.189Z,84.20
2019-02-16T23:29:37.871Z,84.30
2019-02-16T23:32:04.585Z,84.40
2019-02-16T23:34:31.197Z,84.40
2019-02-16T23:36:57.844Z,84.30
2019-02-16T23:39:24.465Z,84.70
2019-02-16T23:41:51.141Z,85.20
2019-02-16T23:44:17.818Z,85.80
2019-02-16T23:46:44.508Z,85.70
2019-02-16T23:49:11.180Z,85.50
2019-02-16T23:51:37.803Z,85.60
2019-02-16T23:54:04.456Z,85.60
2019-02-16T23:56:31.066Z,85.80
2019-02-16T23:58:57.578Z,86.10
